Spink, South Dakota
Current Conditions -  °F | °C
As of 5:55 PM on Monday 20 Oct 2014 (Local Time) from KLRJ Reporting Station
Clear Clear  
Wind Chill: 68°   Ceiling: Unl
Heat Index: 68°   Visibility: 10mi
Dew Point: 39°   Wind: 6mph
Humidity: 35%   Direction: 310°NW
Pressure: 30.04"   Gusts: NA
Location:  42.7901°N, 96.6907°W
Report Text: KLRJ 202255Z AUTO 31005KT 10SM CLR 20/04 A3004 RMK AO2
Loading
Personal Weather Stations






























Interactive Weather Map
Tropical Storm Tracking
New forecast layout! Learn more

10-Day Weather Forecast

Advertisements
Track Severe Weather on mobile